Ledbetter, Kentucky
Current Conditions -  °F | °C
As of 5:53 AM on Friday 19 Dec 2014 (Local Time) from KPAH Reporting Station
Overcast Overcast  
Wind Chill: 25°   Ceiling: 4200
Heat Index: 33°   Visibility: 8mi
Dew Point: 28°   Wind: 9mph
Humidity: 82%   Direction: 50°NE
Pressure: 30.27"   Gusts: NA
Location:  37.05°N, 88.5°W
Report Text: KPAH 191153Z 05008KT 8SM OVC042 01/M02 A3027 RMK AO2 SLP251 T00061022 10017 20006 53000
Loading
Personal Weather Stations






























Interactive Weather Map New forecast layout! Learn more

10-Day Weather Forecast

Advertisements
Track Severe Weather on mobile